createdAt,value
2018-07-12T00:02:04.826Z,2.50
2018-07-12T00:04:31.134Z,2.40
2018-07-12T00:06:57.476Z,2.47
2018-07-12T00:09:24.061Z,2.67
2018-07-12T00:11:50.399Z,2.13
2018-07-12T00:14:17.167Z,2.27
2018-07-12T00:16:43.768Z,2.77
2018-07-12T00:19:10.110Z,2.27
2018-07-12T00:21:36.665Z,3.40
2018-07-12T00:24:02.969Z,2.20
2018-07-12T00:26:29.368Z,2.73
2018-07-12T00:28:55.863Z,2.50
2018-07-12T00:31:23.639Z,2.77
2018-07-12T00:33:50.655Z,2.93
2018-07-12T00:36:37.212Z,3.17
2018-07-12T00:39:07.892Z,2.57
2018-07-12T00:41:43.622Z,1.90
2018-07-12T00:44:10.497Z,2.27
2018-07-12T00:46:36.825Z,2.63
2018-07-12T00:49:03.400Z,2.37
2018-07-12T00:51:29.793Z,2.50
2018-07-12T00:53:56.080Z,2.60
2018-07-12T00:56:22.839Z,2.57
2018-07-12T00:58:49.195Z,2.30
2018-07-12T01:01:16.004Z,2.60
2018-07-12T01:03:42.844Z,2.20
2018-07-12T01:06:09.148Z,3.10
2018-07-12T01:08:35.444Z,3.10
2018-07-12T01:11:01.986Z,2.80
2018-07-12T01:13:28.294Z,3.33
2018-07-12T01:15:55.000Z,3.13
2018-07-12T01:18:21.341Z,2.77
2018-07-12T01:20:47.652Z,2.60
2018-07-12T01:23:14.599Z,2.63
2018-07-12T01:25:40.899Z,3.07
2018-07-12T01:28:07.197Z,2.80
2018-07-12T01:30:33.714Z,2.87
2018-07-12T01:33:00.524Z,2.70
2018-07-12T01:35:27.012Z,3.00
2018-07-12T01:37:53.607Z,2.93
2018-07-12T01:40:19.896Z,4.63
2018-07-12T01:42:46.198Z,3.20
2018-07-12T01:45:13.613Z,2.73
2018-07-12T01:47:39.947Z,2.97
2018-07-12T01:50:06.271Z,2.67
2018-07-12T01:52:32.623Z,3.27
2018-07-12T01:54:58.899Z,3.80
2018-07-12T01:57:25.234Z,2.57
2018-07-12T01:59:51.871Z,2.50
2018-07-12T02:02:33.500Z,2.77
2018-07-12T02:05:00.462Z,2.47
2018-07-12T02:07:34.429Z,3.17
2018-07-12T02:10:08.257Z,2.70
2018-07-12T02:12:35.655Z,2.50
2018-07-12T02:15:09.795Z,3.30
2018-07-12T02:17:36.083Z,2.37
2018-07-12T02:20:10.747Z,2.33
2018-07-12T02:22:37.061Z,2.23
2018-07-12T02:25:03.361Z,2.43
2018-07-12T02:27:30.086Z,2.47
2018-07-12T02:29:56.412Z,2.60
2018-07-12T02:32:22.716Z,2.50
2018-07-12T02:34:49.291Z,2.50
2018-07-12T02:37:15.612Z,3.57
2018-07-12T02:39:41.932Z,2.37
2018-07-12T02:42:08.568Z,2.90
2018-07-12T02:44:35.355Z,2.77
2018-07-12T02:47:01.685Z,2.70
2018-07-12T02:49:28.142Z,2.47
2018-07-12T02:51:54.444Z,3.67
2018-07-12T02:54:20.759Z,2.87
2018-07-12T02:56:47.435Z,2.23
2018-07-12T02:59:13.732Z,2.50
2018-07-12T03:01:40.036Z,3.33
2018-07-12T03:04:06.651Z,2.67
2018-07-12T03:06:33.523Z,3.10
2018-07-12T03:08:59.836Z,2.20
2018-07-12T03:11:26.163Z,2.30
2018-07-12T03:13:53.308Z,2.17
2018-07-12T03:16:19.608Z,2.23
2018-07-12T03:18:46.734Z,2.47
2018-07-12T03:21:13.017Z,2.27
2018-07-12T03:23:39.781Z,2.23
2018-07-12T03:26:06.480Z,3.23
2018-07-12T03:28:33.271Z,3.87
2018-07-12T03:30:59.585Z,3.30
2018-07-12T03:33:26.079Z,2.17
2018-07-12T03:35:52.374Z,2.57
2018-07-12T03:38:19.142Z,3.00
2018-07-12T03:40:45.757Z,2.87
2018-07-12T03:43:12.521Z,2.70
2018-07-12T03:45:38.825Z,2.57
2018-07-12T03:48:06.433Z,2.77
2018-07-12T03:50:32.817Z,2.60
2018-07-12T03:52:59.168Z,2.83
2018-07-12T03:55:25.482Z,2.70
2018-07-12T03:57:52.241Z,3.47
2018-07-12T04:00:19.066Z,2.73
2018-07-12T04:02:45.507Z,2.40
2018-07-12T04:05:11.807Z,2.53
2018-07-12T04:07:38.127Z,2.67
2018-07-12T04:10:04.944Z,3.17
2018-07-12T04:12:31.240Z,3.13
2018-07-12T04:14:59.300Z,3.23
2018-07-12T04:17:29.982Z,2.80
2018-07-12T04:19:57.606Z,3.20
2018-07-12T04:22:24.243Z,2.73
2018-07-12T04:24:50.612Z,3.37
2018-07-12T04:27:17.716Z,3.57
2018-07-12T04:29:44.015Z,3.23
2018-07-12T04:32:10.570Z,3.20
2018-07-12T04:34:36.905Z,2.80
2018-07-12T04:37:03.187Z,3.47
2018-07-12T04:39:29.899Z,2.77
2018-07-12T04:41:56.195Z,3.73
2018-07-12T04:44:22.808Z,3.73
2018-07-12T04:46:49.408Z,3.40
2018-07-12T04:49:15.737Z,2.60
2018-07-12T04:51:42.099Z,3.00
2018-07-12T04:54:08.525Z,2.93
2018-07-12T04:56:34.889Z,2.90
2018-07-12T04:59:01.660Z,3.30
2018-07-12T05:01:28.263Z,2.80
2018-07-12T05:03:55.081Z,2.83
2018-07-12T05:06:21.420Z,3.30
2018-07-12T05:08:48.109Z,2.97
2018-07-12T05:11:14.984Z,3.33
2018-07-12T05:13:41.299Z,3.00
2018-07-12T05:16:08.366Z,2.87
2018-07-12T05:18:34.664Z,2.87
2018-07-12T05:21:01.007Z,3.17
2018-07-12T05:23:27.683Z,3.03
2018-07-12T05:25:54.451Z,3.93
2018-07-12T05:28:20.762Z,3.13
2018-07-12T05:30:48.182Z,3.23
2018-07-12T05:33:22.749Z,2.73
2018-07-12T05:35:50.671Z,2.80
2018-07-12T05:38:18.207Z,3.50
2018-07-12T05:41:08.089Z,3.00
2018-07-12T05:43:35.639Z,3.33
2018-07-12T05:46:18.395Z,3.17
2018-07-12T05:48:45.921Z,3.20
2018-07-12T05:51:18.152Z,3.60
2018-07-12T05:53:46.301Z,3.43
2018-07-12T05:56:26.431Z,3.30
2018-07-12T05:58:54.045Z,4.23
2018-07-12T06:01:39.613Z,3.70
2018-07-12T06:04:07.402Z,3.60
2018-07-12T06:06:35.005Z,3.53
2018-07-12T06:09:04.421Z,4.07
2018-07-12T06:11:32.093Z,3.43
2018-07-12T06:13:59.756Z,3.27
2018-07-12T06:16:27.767Z,3.53
2018-07-12T06:18:55.783Z,3.00
2018-07-12T06:21:23.296Z,3.47
2018-07-12T06:23:50.889Z,3.73
2018-07-12T06:26:18.840Z,4.03
2018-07-12T06:28:46.605Z,2.80
2018-07-12T06:31:14.316Z,3.30
2018-07-12T06:33:41.876Z,3.60
2018-07-12T06:36:09.675Z,3.20
2018-07-12T06:38:37.349Z,3.80
2018-07-12T06:41:05.051Z,4.00
2018-07-12T06:43:32.796Z,3.40
2018-07-12T06:46:00.445Z,3.57
2018-07-12T06:48:28.056Z,2.87
2018-07-12T06:50:56.072Z,3.50
2018-07-12T06:53:23.883Z,3.07
2018-07-12T06:55:51.776Z,3.47
2018-07-12T06:58:19.599Z,3.23
2018-07-12T07:00:47.147Z,4.43
2018-07-12T07:03:14.781Z,3.73
2018-07-12T07:05:42.841Z,3.57
2018-07-12T07:08:10.467Z,3.43
2018-07-12T07:10:38.067Z,3.53
2018-07-12T07:13:05.945Z,3.37
2018-07-12T07:15:33.575Z,3.33
2018-07-12T07:18:01.204Z,5.67
2018-07-12T07:20:29.368Z,3.80
2018-07-12T07:22:57.026Z,3.20
2018-07-12T07:25:24.639Z,3.50
2018-07-12T07:27:52.936Z,3.53
2018-07-12T07:30:20.603Z,3.77
2018-07-12T07:32:48.241Z,3.83
2018-07-12T07:35:16.014Z,4.90
2018-07-12T07:37:43.623Z,3.67
2018-07-12T07:40:11.296Z,3.43
2018-07-12T07:42:39.168Z,4.50
2018-07-12T07:45:07.286Z,4.37
2018-07-12T07:47:35.047Z,3.87
2018-07-12T07:50:06.985Z,3.40
2018-07-12T07:52:34.645Z,3.80
2018-07-12T07:55:02.312Z,4.30
2018-07-12T07:57:30.193Z,4.07
2018-07-12T07:59:57.790Z,4.07
2018-07-12T08:02:25.790Z,4.00
2018-07-12T08:04:53.612Z,3.77
2018-07-12T08:07:21.210Z,3.93
2018-07-12T08:09:48.797Z,4.23
2018-07-12T08:12:16.723Z,3.80
2018-07-12T08:14:44.289Z,4.23
2018-07-12T08:17:11.959Z,4.27
2018-07-12T08:19:40.120Z,4.07
2018-07-12T08:22:08.863Z,3.50
2018-07-12T08:24:36.522Z,3.60
2018-07-12T08:27:04.961Z,4.03
2018-07-12T08:29:34.012Z,4.10
2018-07-12T08:32:03.109Z,3.80
2018-07-12T08:34:31.452Z,3.53
2018-07-12T08:36:59.101Z,3.80
2018-07-12T08:39:26.757Z,4.20
2018-07-12T08:41:54.766Z,4.13
2018-07-12T08:44:22.379Z,4.57
2018-07-12T08:46:50.797Z,4.10
2018-07-12T08:49:18.630Z,4.17
2018-07-12T08:51:46.720Z,4.80
2018-07-12T08:54:14.787Z,3.97
2018-07-12T08:56:43.132Z,4.23
2018-07-12T08:59:10.793Z,4.23
2018-07-12T09:01:38.448Z,4.97
2018-07-12T09:04:06.647Z,4.47
2018-07-12T09:06:34.321Z,4.40
2018-07-12T09:09:01.948Z,3.77
2018-07-12T09:11:29.947Z,4.70
2018-07-12T09:13:57.544Z,4.57
2018-07-12T09:16:25.174Z,4.37
2018-07-12T09:18:53.056Z,4.80
2018-07-12T09:21:20.640Z,4.50
2018-07-12T09:23:48.234Z,4.23
2018-07-12T09:26:16.054Z,4.30
2018-07-12T09:28:43.872Z,4.07
2018-07-12T09:31:12.240Z,3.47
2018-07-12T09:33:39.847Z,4.17
2018-07-12T09:36:07.721Z,3.60
2018-07-12T09:38:48.810Z,4.13
2018-07-12T09:41:16.718Z,3.70
2018-07-12T09:43:45.072Z,3.77
2018-07-12T09:46:13.052Z,3.67
2018-07-12T09:48:42.231Z,3.73
2018-07-12T09:51:14.366Z,3.87
2018-07-12T09:53:43.042Z,3.63
2018-07-12T09:56:10.717Z,3.50
2018-07-12T09:58:38.635Z,3.60
2018-07-12T10:01:12.047Z,3.60
2018-07-12T10:03:45.487Z,3.73
2018-07-12T10:06:18.884Z,3.00
2018-07-12T10:08:52.376Z,3.63
2018-07-12T10:11:26.796Z,2.93
2018-07-12T10:14:04.936Z,3.30
2018-07-12T10:16:38.372Z,3.20
2018-07-12T10:19:06.005Z,3.30
2018-07-12T10:21:33.692Z,2.97
2018-07-12T10:24:01.832Z,2.90
2018-07-12T10:26:29.551Z,3.40
2018-07-12T10:28:57.215Z,3.07
2018-07-12T10:31:25.636Z,2.87
2018-07-12T10:33:53.251Z,3.17
2018-07-12T10:36:20.928Z,3.17
2018-07-12T10:38:48.792Z,3.03
2018-07-12T10:41:16.421Z,3.20
2018-07-12T10:43:44.046Z,3.90
2018-07-12T10:46:12.453Z,3.90
2018-07-12T10:48:40.060Z,3.33
2018-07-12T10:51:10.248Z,3.30
2018-07-12T10:53:38.792Z,4.10
2018-07-12T10:56:06.451Z,4.13
2018-07-12T10:58:34.086Z,4.60
2018-07-12T11:01:01.912Z,3.97
2018-07-12T11:03:29.572Z,3.47
2018-07-12T11:05:57.183Z,3.47
2018-07-12T11:08:25.358Z,4.20
2018-07-12T11:10:52.976Z,4.23
2018-07-12T11:13:38.876Z,4.80
2018-07-12T11:16:06.465Z,4.47
2018-07-12T11:18:34.088Z,4.60
2018-07-12T11:21:01.890Z,5.10
2018-07-12T11:23:29.579Z,5.00
2018-07-12T11:25:57.327Z,4.30
2018-07-12T11:28:25.267Z,4.43
2018-07-12T11:30:52.888Z,5.87
2018-07-12T11:33:44.887Z,4.57
2018-07-12T11:36:12.619Z,4.33
2018-07-12T11:38:41.596Z,4.53
2018-07-12T11:41:10.024Z,5.17
2018-07-12T11:43:37.706Z,4.93
2018-07-12T11:46:06.423Z,5.10
2018-07-12T11:48:35.373Z,4.77
2018-07-12T11:51:03.314Z,4.67
2018-07-12T11:53:30.927Z,4.03
2018-07-12T11:55:58.887Z,3.97
2018-07-12T11:58:26.531Z,4.93
2018-07-12T12:00:55.507Z,4.57
2018-07-12T12:03:23.374Z,4.40
2018-07-12T12:05:50.979Z,4.63
2018-07-12T12:08:18.434Z,4.20
2018-07-12T12:10:46.327Z,4.00
2018-07-12T12:13:14.392Z,3.60
2018-07-12T12:15:42.304Z,4.43
2018-07-12T12:18:10.345Z,4.10
2018-07-12T12:20:37.951Z,4.30
2018-07-12T12:23:06.131Z,4.80
2018-07-12T12:25:33.960Z,4.27
2018-07-12T12:28:06.767Z,4.77
2018-07-12T12:30:35.037Z,4.20
2018-07-12T12:33:12.579Z,4.17
2018-07-12T12:35:40.599Z,4.10
2018-07-12T12:38:11.092Z,4.70
2018-07-12T12:40:38.785Z,4.47
2018-07-12T12:43:07.092Z,4.27
2018-07-12T12:45:35.647Z,4.63
2018-07-12T12:48:03.357Z,4.93
2018-07-12T12:50:31.221Z,4.80
2018-07-12T12:52:58.875Z,4.57
2018-07-12T12:55:26.499Z,4.30
2018-07-12T12:57:54.335Z,4.33
2018-07-12T13:00:21.910Z,3.70
2018-07-12T13:02:49.541Z,3.17
2018-07-12T13:05:17.453Z,2.60
2018-07-12T13:07:45.102Z,2.60
2018-07-12T13:10:12.735Z,2.27
2018-07-12T13:12:40.342Z,2.30
2018-07-12T13:15:07.958Z,2.17
2018-07-12T13:17:35.851Z,2.27
2018-07-12T13:20:03.805Z,1.73
2018-07-12T13:22:31.523Z,1.87
2018-07-12T13:24:59.360Z,1.87
2018-07-12T13:27:27.082Z,1.63
2018-07-12T13:29:54.682Z,1.57
2018-07-12T13:32:22.336Z,1.20
2018-07-12T13:34:50.819Z,1.43
2018-07-12T13:37:18.956Z,1.77
2018-07-12T13:39:46.746Z,1.70
2018-07-12T13:42:14.370Z,2.03
2018-07-12T13:44:42.091Z,1.63
2018-07-12T13:47:10.052Z,1.77
2018-07-12T13:49:37.812Z,1.57
2018-07-12T13:52:05.446Z,1.40
2018-07-12T13:54:33.117Z,1.67
2018-07-12T13:57:03.269Z,1.50
2018-07-12T13:59:30.859Z,1.70
2018-07-12T14:01:58.768Z,1.80
2018-07-12T14:04:26.529Z,2.03
2018-07-12T14:06:54.202Z,1.87
2018-07-12T14:09:22.103Z,2.17
2018-07-12T14:11:50.139Z,2.07
2018-07-12T14:14:17.787Z,4.37
2018-07-12T14:16:45.603Z,2.57
2018-07-12T14:19:13.195Z,2.40
2018-07-12T14:21:40.809Z,2.70
2018-07-12T14:24:08.709Z,2.83
2018-07-12T14:26:36.356Z,2.93
2018-07-12T14:29:04.023Z,2.83
2018-07-12T14:31:31.820Z,3.23
2018-07-12T14:33:59.640Z,3.63
2018-07-12T14:36:27.356Z,3.60
2018-07-12T14:38:55.084Z,3.53
2018-07-12T14:41:23.089Z,3.43
2018-07-12T14:43:50.735Z,3.97
2018-07-12T14:46:18.371Z,3.57
2018-07-12T14:48:46.056Z,2.87
2018-07-12T14:51:13.639Z,2.73
2018-07-12T14:53:41.273Z,2.80
2018-07-12T14:56:09.010Z,2.60
2018-07-12T14:58:39.767Z,2.20
2018-07-12T15:01:07.463Z,2.13
2018-07-12T15:03:35.564Z,2.20
2018-07-12T15:06:03.456Z,2.23
2018-07-12T15:08:31.140Z,2.00
2018-07-12T15:10:59.139Z,2.00
2018-07-12T15:13:26.780Z,1.60
2018-07-12T15:15:54.363Z,1.70
2018-07-12T15:18:22.356Z,1.50
2018-07-12T15:20:50.013Z,1.80
2018-07-12T15:23:17.725Z,2.40
2018-07-12T15:25:45.620Z,1.63
2018-07-12T15:28:13.253Z,2.40
2018-07-12T15:30:40.951Z,2.47
2018-07-12T15:33:09.624Z,1.83
2018-07-12T15:35:37.342Z,1.73
2018-07-12T15:38:05.179Z,2.17
2018-07-12T15:40:37.081Z,1.83
2018-07-12T15:43:04.797Z,2.07
2018-07-12T15:45:32.463Z,1.97
2018-07-12T15:48:00.656Z,1.73
2018-07-12T15:50:28.274Z,1.70
2018-07-12T15:52:55.953Z,1.90
2018-07-12T15:55:23.539Z,2.03
2018-07-12T15:57:51.227Z,2.00
2018-07-12T16:00:19.414Z,2.20
2018-07-12T16:02:47.802Z,2.07
2018-07-12T16:05:15.460Z,1.93
2018-07-12T16:07:44.482Z,1.87
2018-07-12T16:10:12.165Z,1.77
2018-07-12T16:12:39.872Z,1.97
2018-07-12T16:15:07.578Z,2.53
2018-07-12T16:17:35.349Z,1.70
2018-07-12T16:20:03.327Z,1.73
2018-07-12T16:22:31.014Z,1.80
2018-07-12T16:24:59.221Z,1.70
2018-07-12T16:27:26.851Z,2.00
2018-07-12T16:29:54.601Z,2.73
2018-07-12T16:32:22.515Z,1.77
2018-07-12T16:34:50.347Z,1.90
2018-07-12T16:37:17.981Z,1.97
2018-07-12T16:39:46.176Z,1.60
2018-07-12T16:42:13.825Z,1.80
2018-07-12T16:44:41.488Z,1.80
2018-07-12T16:47:09.450Z,1.80
2018-07-12T16:49:37.096Z,2.53
2018-07-12T16:52:04.742Z,2.23
2018-07-12T16:54:32.722Z,1.60
2018-07-12T16:57:00.429Z,1.63
2018-07-12T16:59:28.260Z,1.87
2018-07-12T17:01:55.903Z,1.53
2018-07-12T17:04:23.499Z,1.80
2018-07-12T17:06:51.159Z,1.67
2018-07-12T17:09:18.948Z,1.70
2018-07-12T17:11:46.632Z,1.60
2018-07-12T17:14:14.657Z,1.93
2018-07-12T17:16:42.372Z,1.90
2018-07-12T17:19:10.060Z,1.67
2018-07-12T17:21:38.101Z,2.13
2018-07-12T17:24:05.844Z,1.70
2018-07-12T17:26:33.504Z,1.80
2018-07-12T17:29:01.309Z,2.10
2018-07-12T17:31:28.898Z,2.07
2018-07-12T17:33:56.492Z,1.83
2018-07-12T17:36:24.228Z,2.47
2018-07-12T17:38:51.904Z,1.80
2018-07-12T17:41:19.568Z,2.10
2018-07-12T17:43:47.687Z,2.40
2018-07-12T17:46:16.300Z,1.80
2018-07-12T17:48:43.923Z,1.83
2018-07-12T17:51:11.648Z,2.10
2018-07-12T17:53:39.504Z,2.33
2018-07-12T17:56:07.164Z,1.87
2018-07-12T17:58:34.845Z,2.10
2018-07-12T18:01:02.521Z,2.27
2018-07-12T18:03:30.203Z,2.03
2018-07-12T18:05:57.928Z,2.43
2018-07-12T18:08:25.593Z,2.00
2018-07-12T18:10:53.180Z,2.10
2018-07-12T18:13:21.321Z,2.27
2018-07-12T18:15:49.161Z,3.13
2018-07-12T18:18:17.404Z,2.80
2018-07-12T18:20:46.407Z,3.37
2018-07-12T18:23:14.050Z,2.20
2018-07-12T18:25:46.304Z,2.33
2018-07-12T18:28:14.047Z,2.13
2018-07-12T18:30:41.662Z,2.43
2018-07-12T18:33:09.847Z,2.50
2018-07-12T18:35:37.542Z,2.27
2018-07-12T18:38:05.139Z,1.93
2018-07-12T18:40:32.826Z,3.03
2018-07-12T18:43:00.536Z,1.80
2018-07-12T18:45:28.204Z,2.10
2018-07-12T18:47:56.150Z,2.27
2018-07-12T18:50:23.878Z,3.47
2018-07-12T18:52:51.579Z,2.27
2018-07-12T18:55:19.592Z,2.23
2018-07-12T18:57:47.253Z,2.30
2018-07-12T19:00:14.896Z,1.87
2018-07-12T19:02:43.226Z,1.80
2018-07-12T19:05:11.726Z,2.50
2018-07-12T19:07:39.433Z,2.17
2018-07-12T19:10:07.470Z,2.20
2018-07-12T19:12:35.176Z,2.30
2018-07-12T19:15:02.817Z,2.33
2018-07-12T19:17:30.953Z,2.37
2018-07-12T19:19:58.671Z,2.20
2018-07-12T19:22:25.938Z,2.63
2018-07-12T19:24:54.041Z,2.57
2018-07-12T19:27:21.664Z,2.87
2018-07-12T19:29:49.298Z,2.00
2018-07-12T19:32:17.229Z,1.90
2018-07-12T19:34:45.075Z,2.27
2018-07-12T19:37:12.618Z,2.23
2018-07-12T19:39:40.283Z,2.13
2018-07-12T19:42:07.923Z,2.70
2018-07-12T19:44:35.702Z,1.70
2018-07-12T19:47:03.413Z,1.60
2018-07-12T19:49:31.076Z,1.77
2018-07-12T19:51:58.861Z,1.77
2018-07-12T19:54:28.264Z,1.77
2018-07-12T19:56:56.786Z,1.60
2018-07-12T19:59:24.624Z,1.97
2018-07-12T20:01:52.329Z,3.10
2018-07-12T20:04:19.956Z,2.00
2018-07-12T20:06:47.936Z,2.83
2018-07-12T20:09:15.944Z,1.93
2018-07-12T20:11:43.587Z,1.93
2018-07-12T20:14:11.548Z,2.30
2018-07-12T20:16:39.311Z,2.30
2018-07-12T20:19:08.280Z,2.47
2018-07-12T20:21:36.198Z,2.40
2018-07-12T20:24:03.901Z,2.50
2018-07-12T20:26:31.603Z,2.83
2018-07-12T20:28:59.495Z,2.40
2018-07-12T20:31:27.108Z,2.33
2018-07-12T20:33:54.801Z,2.00
2018-07-12T20:36:25.342Z,2.27
2018-07-12T20:38:58.907Z,2.40
2018-07-12T20:41:26.895Z,2.43
2018-07-12T20:43:54.536Z,1.90
2018-07-12T20:46:22.160Z,2.00
2018-07-12T20:48:49.955Z,2.27
2018-07-12T20:51:17.700Z,2.13
2018-07-12T20:53:45.321Z,2.00
2018-07-12T20:56:12.931Z,1.90
2018-07-12T20:58:40.916Z,2.27
2018-07-12T21:01:08.549Z,2.47
2018-07-12T21:03:36.221Z,4.57
2018-07-12T21:06:04.143Z,2.10
2018-07-12T21:08:31.804Z,1.97
2018-07-12T21:11:04.018Z,2.23
2018-07-12T21:13:31.900Z,1.73
2018-07-12T21:15:59.501Z,3.90
2018-07-12T21:18:27.382Z,2.77
2018-07-12T21:20:55.048Z,2.93
2018-07-12T21:23:22.482Z,2.33
2018-07-12T21:25:50.253Z,2.10
2018-07-12T21:28:17.892Z,2.93
2018-07-12T21:30:45.499Z,3.47
2018-07-12T21:33:13.354Z,2.67
2018-07-12T21:35:40.908Z,3.07
2018-07-12T21:38:08.501Z,2.40
2018-07-12T21:40:36.571Z,3.13
2018-07-12T21:43:04.459Z,3.10
2018-07-12T21:45:32.120Z,4.80
2018-07-12T21:48:00.101Z,2.60
2018-07-12T21:50:27.870Z,3.87
2018-07-12T21:52:55.463Z,4.33
2018-07-12T21:55:23.098Z,3.47
2018-07-12T21:57:50.874Z,3.30
2018-07-12T22:00:18.551Z,5.03
2018-07-12T22:02:46.474Z,4.00
2018-07-12T22:05:14.032Z,3.13
2018-07-12T22:08:21.747Z,5.07
2018-07-12T22:10:52.455Z,2.70
2018-07-12T22:13:20.960Z,3.90
2018-07-12T22:15:49.082Z,3.20
2018-07-12T22:18:16.764Z,2.97
2018-07-12T22:20:44.439Z,4.57
2018-07-12T22:23:12.338Z,3.67
2018-07-12T22:25:40.099Z,2.63
2018-07-12T22:28:07.802Z,2.37
2018-07-12T22:30:35.908Z,3.40
2018-07-12T22:33:03.991Z,2.63
2018-07-12T22:35:31.591Z,2.73
2018-07-12T22:38:00.466Z,2.63
2018-07-12T22:40:28.447Z,2.93
2018-07-12T22:42:56.231Z,3.20
2018-07-12T22:45:24.542Z,2.57
2018-07-12T22:47:52.173Z,3.10
2018-07-12T22:50:19.824Z,2.67
2018-07-12T22:52:47.937Z,2.53
2018-07-12T22:55:16.379Z,2.23
2018-07-12T22:57:44.073Z,2.93
2018-07-12T23:00:11.816Z,2.60
2018-07-12T23:02:39.592Z,2.93
2018-07-12T23:05:07.292Z,2.20
2018-07-12T23:07:35.135Z,3.40
2018-07-12T23:10:02.816Z,2.60
2018-07-12T23:12:30.427Z,2.53
2018-07-12T23:14:58.294Z,2.50
2018-07-12T23:17:25.908Z,2.30
2018-07-12T23:19:53.528Z,2.17
2018-07-12T23:22:22.048Z,2.47
2018-07-12T23:24:49.768Z,2.70
2018-07-12T23:27:17.500Z,4.13
2018-07-12T23:29:45.864Z,2.23
2018-07-12T23:32:13.565Z,2.40
2018-07-12T23:34:41.633Z,2.60
2018-07-12T23:37:09.540Z,2.10
2018-07-12T23:39:37.455Z,2.90
2018-07-12T23:42:05.184Z,2.20
2018-07-12T23:44:32.977Z,2.60
2018-07-12T23:47:00.616Z,2.77
2018-07-12T23:49:28.615Z,2.70
2018-07-12T23:51:56.406Z,2.67
2018-07-12T23:54:24.083Z,2.50
2018-07-12T23:56:52.325Z,2.80
2018-07-12T23:59:19.997Z,2.53
